sensor_id;sensor_type;location;lat;lon;timestamp;temperature;humidity
67054;SHT31;53960;51.826;5.850;2023-07-28T00:00:43;18.35;95.33
67054;SHT31;53960;51.826;5.850;2023-07-28T00:03:09;18.31;95.47
67054;SHT31;53960;51.826;5.850;2023-07-28T00:05:36;18.29;95.67
67054;SHT31;53960;51.826;5.850;2023-07-28T00:08:01;18.29;95.67
67054;SHT31;53960;51.826;5.850;2023-07-28T00:10:27;18.31;95.59
67054;SHT31;53960;51.826;5.850;2023-07-28T00:12:52;18.33;95.59
67054;SHT31;53960;51.826;5.850;2023-07-28T00:15:17;18.28;95.66
67054;SHT31;53960;51.826;5.850;2023-07-28T00:17:43;18.33;95.66
67054;SHT31;53960;51.826;5.850;2023-07-28T00:20:09;18.31;95.64
67054;SHT31;53960;51.826;5.850;2023-07-28T00:22:35;18.29;95.74
67054;SHT31;53960;51.826;5.850;2023-07-28T00:25:00;18.32;95.49
67054;SHT31;53960;51.826;5.850;2023-07-28T00:27:26;18.32;95.53
67054;SHT31;53960;51.826;5.850;2023-07-28T00:29:51;18.29;95.70
67054;SHT31;53960;51.826;5.850;2023-07-28T00:32:16;18.29;95.73
67054;SHT31;53960;51.826;5.850;2023-07-28T00:34:42;18.29;95.67
67054;SHT31;53960;51.826;5.850;2023-07-28T00:37:07;18.29;95.70
67054;SHT31;53960;51.826;5.850;2023-07-28T00:39:32;18.29;95.61
67054;SHT31;53960;51.826;5.850;2023-07-28T00:41:58;18.28;95.56
67054;SHT31;53960;51.826;5.850;2023-07-28T00:44:23;18.31;95.65
67054;SHT31;53960;51.826;5.850;2023-07-28T00:46:48;18.25;95.85
67054;SHT31;53960;51.826;5.850;2023-07-28T00:49:13;18.31;95.75
67054;SHT31;53960;51.826;5.850;2023-07-28T00:51:39;18.28;95.77
67054;SHT31;53960;51.826;5.850;2023-07-28T00:54:05;18.29;95.78
67054;SHT31;53960;51.826;5.850;2023-07-28T00:56:31;18.29;95.79
67054;SHT31;53960;51.826;5.850;2023-07-28T00:58:57;18.26;95.84
67054;SHT31;53960;51.826;5.850;2023-07-28T01:01:22;18.35;95.63
67054;SHT31;53960;51.826;5.850;2023-07-28T01:03:49;18.39;95.41
67054;SHT31;53960;51.826;5.850;2023-07-28T01:06:18;18.33;95.46
67054;SHT31;53960;51.826;5.850;2023-07-28T01:09:08;18.33;95.58
67054;SHT31;53960;51.826;5.850;2023-07-28T01:11:34;18.38;95.60
67054;SHT31;53960;51.826;5.850;2023-07-28T01:14:00;18.38;95.50
67054;SHT31;53960;51.826;5.850;2023-07-28T01:16:26;18.32;95.73
67054;SHT31;53960;51.826;5.850;2023-07-28T01:18:51;18.33;95.80
67054;SHT31;53960;51.826;5.850;2023-07-28T01:21:22;18.31;95.79
67054;SHT31;53960;51.826;5.850;2023-07-28T01:23:56;18.29;95.89
67054;SHT31;53960;51.826;5.850;2023-07-28T01:26:35;18.33;95.79
67054;SHT31;53960;51.826;5.850;2023-07-28T01:29:02;18.31;95.90
67054;SHT31;53960;51.826;5.850;2023-07-28T01:31:28;18.29;95.90
67054;SHT31;53960;51.826;5.850;2023-07-28T01:33:54;18.32;95.97
67054;SHT31;53960;51.826;5.850;2023-07-28T01:36:19;18.33;95.68
67054;SHT31;53960;51.826;5.850;2023-07-28T01:38:44;18.35;95.70
67054;SHT31;53960;51.826;5.850;2023-07-28T01:41:10;18.32;95.79
67054;SHT31;53960;51.826;5.850;2023-07-28T01:43:35;18.28;95.97
67054;SHT31;53960;51.826;5.850;2023-07-28T01:46:00;18.29;96.02
67054;SHT31;53960;51.826;5.850;2023-07-28T01:48:26;18.32;95.92
67054;SHT31;53960;51.826;5.850;2023-07-28T01:50:51;18.28;96.06
67054;SHT31;53960;51.826;5.850;2023-07-28T01:53:17;18.32;95.95
67054;SHT31;53960;51.826;5.850;2023-07-28T01:55:42;18.29;95.91
67054;SHT31;53960;51.826;5.850;2023-07-28T01:58:07;18.31;95.97
67054;SHT31;53960;51.826;5.850;2023-07-28T02:00:34;18.32;95.87
67054;SHT31;53960;51.826;5.850;2023-07-28T02:03:00;18.32;95.90
67054;SHT31;53960;51.826;5.850;2023-07-28T02:05:27;18.29;96.10
67054;SHT31;53960;51.826;5.850;2023-07-28T02:07:52;18.31;96.10
67054;SHT31;53960;51.826;5.850;2023-07-28T02:10:18;18.31;95.93
67054;SHT31;53960;51.826;5.850;2023-07-28T02:12:43;18.35;95.94
67054;SHT31;53960;51.826;5.850;2023-07-28T02:15:11;18.33;95.98
67054;SHT31;53960;51.826;5.850;2023-07-28T02:17:36;18.26;96.07
67054;SHT31;53960;51.826;5.850;2023-07-28T02:20:02;18.33;95.94
67054;SHT31;53960;51.826;5.850;2023-07-28T02:22:28;18.35;95.80
67054;SHT31;53960;51.826;5.850;2023-07-28T02:24:54;18.33;95.83
67054;SHT31;53960;51.826;5.850;2023-07-28T02:27:19;18.33;95.80
67054;SHT31;53960;51.826;5.850;2023-07-28T02:29:44;18.31;95.92
67054;SHT31;53960;51.826;5.850;2023-07-28T02:32:10;18.29;95.92
67054;SHT31;53960;51.826;5.850;2023-07-28T02:34:36;18.28;96.11
67054;SHT31;53960;51.826;5.850;2023-07-28T02:37:01;18.29;96.00
67054;SHT31;53960;51.826;5.850;2023-07-28T02:39:27;18.29;96.12
67054;SHT31;53960;51.826;5.850;2023-07-28T02:41:53;18.25;96.11
67054;SHT31;53960;51.826;5.850;2023-07-28T02:44:18;18.25;96.21
67054;SHT31;53960;51.826;5.850;2023-07-28T02:46:43;18.28;96.17
67054;SHT31;53960;51.826;5.850;2023-07-28T02:49:09;18.28;96.10
67054;SHT31;53960;51.826;5.850;2023-07-28T02:51:34;18.25;96.21
67054;SHT31;53960;51.826;5.850;2023-07-28T02:54:00;18.26;96.11
67054;SHT31;53960;51.826;5.850;2023-07-28T02:56:25;18.31;96.02
67054;SHT31;53960;51.826;5.850;2023-07-28T02:58:51;18.28;95.99
67054;SHT31;53960;51.826;5.850;2023-07-28T03:01:17;18.26;96.04
67054;SHT31;53960;51.826;5.850;2023-07-28T03:03:42;18.29;95.93
67054;SHT31;53960;51.826;5.850;2023-07-28T03:06:08;18.29;96.06
67054;SHT31;53960;51.826;5.850;2023-07-28T03:08:33;18.25;96.10
67054;SHT31;53960;51.826;5.850;2023-07-28T03:10:59;18.26;96.04
67054;SHT31;53960;51.826;5.850;2023-07-28T03:13:27;18.29;96.02
67054;SHT31;53960;51.826;5.850;2023-07-28T03:15:52;18.29;96.02
67054;SHT31;53960;51.826;5.850;2023-07-28T03:18:18;18.29;96.09
67054;SHT31;53960;51.826;5.850;2023-07-28T03:20:43;18.31;95.91
67054;SHT31;53960;51.826;5.850;2023-07-28T03:23:08;18.33;95.79
67054;SHT31;53960;51.826;5.850;2023-07-28T03:25:34;18.35;95.66
67054;SHT31;53960;51.826;5.850;2023-07-28T03:27:59;18.33;95.87
67054;SHT31;53960;51.826;5.850;2023-07-28T03:30:24;18.32;95.80
67054;SHT31;53960;51.826;5.850;2023-07-28T03:32:50;18.28;96.06
67054;SHT31;53960;51.826;5.850;2023-07-28T03:35:15;18.28;96.22
67054;SHT31;53960;51.826;5.850;2023-07-28T03:37:41;18.32;96.06
67054;SHT31;53960;51.826;5.850;2023-07-28T03:40:06;18.33;95.95
67054;SHT31;53960;51.826;5.850;2023-07-28T03:42:32;18.35;95.86
67054;SHT31;53960;51.826;5.850;2023-07-28T03:44:57;18.35;95.87
67054;SHT31;53960;51.826;5.850;2023-07-28T03:47:23;18.31;95.99
67054;SHT31;53960;51.826;5.850;2023-07-28T03:49:49;18.35;95.89
67054;SHT31;53960;51.826;5.850;2023-07-28T03:52:14;18.31;96.01
67054;SHT31;53960;51.826;5.850;2023-07-28T03:54:39;18.28;96.09
67054;SHT31;53960;51.826;5.850;2023-07-28T03:57:05;18.38;96.05
67054;SHT31;53960;51.826;5.850;2023-07-28T03:59:30;18.33;96.01
67054;SHT31;53960;51.826;5.850;2023-07-28T04:01:56;18.36;96.02
67054;SHT31;53960;51.826;5.850;2023-07-28T04:04:21;18.35;96.06
67054;SHT31;53960;51.826;5.850;2023-07-28T04:06:48;18.33;96.17
67054;SHT31;53960;51.826;5.850;2023-07-28T04:09:19;18.39;95.94
67054;SHT31;53960;51.826;5.850;2023-07-28T04:11:44;18.39;95.89
67054;SHT31;53960;51.826;5.850;2023-07-28T04:14:10;18.35;96.09
67054;SHT31;53960;51.826;5.850;2023-07-28T04:16:35;18.35;96.22
67054;SHT31;53960;51.826;5.850;2023-07-28T04:19:01;18.32;96.22
67054;SHT31;53960;51.826;5.850;2023-07-28T04:21:26;18.31;96.29
67054;SHT31;53960;51.826;5.850;2023-07-28T04:23:52;18.35;96.32
67054;SHT31;53960;51.826;5.850;2023-07-28T04:26:17;18.39;96.06
67054;SHT31;53960;51.826;5.850;2023-07-28T04:28:43;18.39;96.12
67054;SHT31;53960;51.826;5.850;2023-07-28T04:31:08;18.33;96.25
67054;SHT31;53960;51.826;5.850;2023-07-28T04:33:34;18.36;96.27
67054;SHT31;53960;51.826;5.850;2023-07-28T04:36:02;18.35;96.22
67054;SHT31;53960;51.826;5.850;2023-07-28T04:38:27;18.35;96.29
67054;SHT31;53960;51.826;5.850;2023-07-28T04:40:53;18.38;96.29
67054;SHT31;53960;51.826;5.850;2023-07-28T04:43:18;18.38;96.25
67054;SHT31;53960;51.826;5.850;2023-07-28T04:45:44;18.43;96.06
67054;SHT31;53960;51.826;5.850;2023-07-28T04:48:10;18.42;96.09
67054;SHT31;53960;51.826;5.850;2023-07-28T04:50:35;18.36;96.26
67054;SHT31;53960;51.826;5.850;2023-07-28T04:53:01;18.33;96.29
67054;SHT31;53960;51.826;5.850;2023-07-28T04:55:27;18.36;96.37
67054;SHT31;53960;51.826;5.850;2023-07-28T04:57:53;18.38;96.41
67054;SHT31;53960;51.826;5.850;2023-07-28T05:00:18;18.38;96.38
67054;SHT31;53960;51.826;5.850;2023-07-28T05:02:43;18.36;96.45
67054;SHT31;53960;51.826;5.850;2023-07-28T05:05:09;18.41;96.39
67054;SHT31;53960;51.826;5.850;2023-07-28T05:07:34;18.39;96.27
67054;SHT31;53960;51.826;5.850;2023-07-28T05:10:00;18.43;96.14
67054;SHT31;53960;51.826;5.850;2023-07-28T05:12:25;18.42;96.17
67054;SHT31;53960;51.826;5.850;2023-07-28T05:14:50;18.42;96.31
67054;SHT31;53960;51.826;5.850;2023-07-28T05:17:16;18.41;96.17
67054;SHT31;53960;51.826;5.850;2023-07-28T05:19:41;18.42;96.27
67054;SHT31;53960;51.826;5.850;2023-07-28T05:22:06;18.41;96.40
67054;SHT31;53960;51.826;5.850;2023-07-28T05:24:35;18.42;96.35
67054;SHT31;53960;51.826;5.850;2023-07-28T05:27:00;18.45;96.22
67054;SHT31;53960;51.826;5.850;2023-07-28T05:29:26;18.42;96.35
67054;SHT31;53960;51.826;5.850;2023-07-28T05:31:51;18.43;96.34
67054;SHT31;53960;51.826;5.850;2023-07-28T05:34:16;18.46;96.27
67054;SHT31;53960;51.826;5.850;2023-07-28T05:36:43;18.48;96.22
67054;SHT31;53960;51.826;5.850;2023-07-28T05:39:08;18.52;96.15
67054;SHT31;53960;51.826;5.850;2023-07-28T05:41:33;18.46;96.18
67054;SHT31;53960;51.826;5.850;2023-07-28T05:43:59;18.48;96.10
67054;SHT31;53960;51.826;5.850;2023-07-28T05:46:24;18.43;96.30
67054;SHT31;53960;51.826;5.850;2023-07-28T05:48:50;18.43;96.22
67054;SHT31;53960;51.826;5.850;2023-07-28T05:51:15;18.49;96.40
67054;SHT31;53960;51.826;5.850;2023-07-28T05:53:42;18.45;96.35
67054;SHT31;53960;51.826;5.850;2023-07-28T05:56:07;18.48;96.34
67054;SHT31;53960;51.826;5.850;2023-07-28T05:58:32;18.52;96.31
67054;SHT31;53960;51.826;5.850;2023-07-28T06:00:58;18.51;96.20
67054;SHT31;53960;51.826;5.850;2023-07-28T06:03:24;18.55;96.28
67054;SHT31;53960;51.826;5.850;2023-07-28T06:05:52;18.56;96.26
67054;SHT31;53960;51.826;5.850;2023-07-28T06:08:17;18.60;96.21
67054;SHT31;53960;51.826;5.850;2023-07-28T06:10:42;18.63;96.27
67054;SHT31;53960;51.826;5.850;2023-07-28T06:13:08;18.64;95.92
67054;SHT31;53960;51.826;5.850;2023-07-28T06:15:33;18.69;95.92
67054;SHT31;53960;51.826;5.850;2023-07-28T06:18:00;18.66;96.04
67054;SHT31;53960;51.826;5.850;2023-07-28T06:20:27;18.64;96.20
67054;SHT31;53960;51.826;5.850;2023-07-28T06:22:53;18.69;96.12
67054;SHT31;53960;51.826;5.850;2023-07-28T06:25:18;18.67;95.90
67054;SHT31;53960;51.826;5.850;2023-07-28T06:27:43;18.70;95.77
67054;SHT31;53960;51.826;5.850;2023-07-28T06:30:09;18.77;95.65
67054;SHT31;53960;51.826;5.850;2023-07-28T06:32:35;18.76;95.68
67054;SHT31;53960;51.826;5.850;2023-07-28T06:35:00;18.77;95.53
67054;SHT31;53960;51.826;5.850;2023-07-28T06:37:26;18.80;95.44
67054;SHT31;53960;51.826;5.850;2023-07-28T06:39:52;18.77;95.24
67054;SHT31;53960;51.826;5.850;2023-07-28T06:42:17;18.83;95.21
67054;SHT31;53960;51.826;5.850;2023-07-28T06:44:49;18.82;95.31
67054;SHT31;53960;51.826;5.850;2023-07-28T06:47:14;18.82;95.48
67054;SHT31;53960;51.826;5.850;2023-07-28T06:49:39;18.83;95.46
67054;SHT31;53960;51.826;5.850;2023-07-28T06:52:05;18.84;95.48
67054;SHT31;53960;51.826;5.850;2023-07-28T06:54:30;18.89;95.26
67054;SHT31;53960;51.826;5.850;2023-07-28T06:56:55;18.87;95.39
67054;SHT31;53960;51.826;5.850;2023-07-28T06:59:21;18.90;95.19
67054;SHT31;53960;51.826;5.850;2023-07-28T07:01:46;18.91;95.04
67054;SHT31;53960;51.826;5.850;2023-07-28T07:04:11;18.93;95.10
67054;SHT31;53960;51.826;5.850;2023-07-28T07:06:37;18.97;94.95
67054;SHT31;53960;51.826;5.850;2023-07-28T07:09:02;19.01;94.63
67054;SHT31;53960;51.826;5.850;2023-07-28T07:11:28;19.01;94.96
67054;SHT31;53960;51.826;5.850;2023-07-28T07:13:53;19.03;94.86
67054;SHT31;53960;51.826;5.850;2023-07-28T07:16:19;19.08;94.86
67054;SHT31;53960;51.826;5.850;2023-07-28T07:18:44;19.06;95.11
67054;SHT31;53960;51.826;5.850;2023-07-28T07:21:10;19.14;94.91
67054;SHT31;53960;51.826;5.850;2023-07-28T07:23:36;19.07;94.77
67054;SHT31;53960;51.826;5.850;2023-07-28T07:26:01;19.07;94.82
67054;SHT31;53960;51.826;5.850;2023-07-28T07:28:26;19.08;94.86
67054;SHT31;53960;51.826;5.850;2023-07-28T07:30:56;19.07;95.03
67054;SHT31;53960;51.826;5.850;2023-07-28T07:33:21;19.06;95.25
67054;SHT31;53960;51.826;5.850;2023-07-28T07:35:46;19.08;95.17
67054;SHT31;53960;51.826;5.850;2023-07-28T07:38:12;19.14;94.89
67054;SHT31;53960;51.826;5.850;2023-07-28T07:40:37;19.14;94.74
67054;SHT31;53960;51.826;5.850;2023-07-28T07:43:03;19.17;95.02
67054;SHT31;53960;51.826;5.850;2023-07-28T07:45:32;19.17;95.12
67054;SHT31;53960;51.826;5.850;2023-07-28T07:47:58;19.20;94.91
67054;SHT31;53960;51.826;5.850;2023-07-28T07:50:24;19.22;94.95
67054;SHT31;53960;51.826;5.850;2023-07-28T07:52:50;19.28;94.86
67054;SHT31;53960;51.826;5.850;2023-07-28T07:55:15;19.34;94.70
67054;SHT31;53960;51.826;5.850;2023-07-28T07:57:41;19.34;94.74
67054;SHT31;53960;51.826;5.850;2023-07-28T08:00:07;19.38;94.42
67054;SHT31;53960;51.826;5.850;2023-07-28T08:02:32;19.35;94.70
67054;SHT31;53960;51.826;5.850;2023-07-28T08:04:58;19.41;94.40
67054;SHT31;53960;51.826;5.850;2023-07-28T08:07:23;19.41;94.31
67054;SHT31;53960;51.826;5.850;2023-07-28T08:09:49;19.47;94.29
67054;SHT31;53960;51.826;5.850;2023-07-28T08:12:15;19.48;94.15
67054;SHT31;53960;51.826;5.850;2023-07-28T08:14:41;19.48;94.29
67054;SHT31;53960;51.826;5.850;2023-07-28T08:17:06;19.49;93.69
67054;SHT31;53960;51.826;5.850;2023-07-28T08:19:32;19.55;93.37
67054;SHT31;53960;51.826;5.850;2023-07-28T08:21:57;19.59;93.40
67054;SHT31;53960;51.826;5.850;2023-07-28T08:24:23;19.63;93.07
67054;SHT31;53960;51.826;5.850;2023-07-28T08:26:48;19.68;92.86
67054;SHT31;53960;51.826;5.850;2023-07-28T08:29:14;19.71;93.01
67054;SHT31;53960;51.826;5.850;2023-07-28T08:31:40;19.73;93.47
67054;SHT31;53960;51.826;5.850;2023-07-28T08:34:06;19.82;93.45
67054;SHT31;53960;51.826;5.850;2023-07-28T08:36:33;19.90;92.98
67054;SHT31;53960;51.826;5.850;2023-07-28T08:38:58;19.94;92.18
67054;SHT31;53960;51.826;5.850;2023-07-28T08:41:24;19.96;92.18
67054;SHT31;53960;51.826;5.850;2023-07-28T08:43:49;20.01;92.25
67054;SHT31;53960;51.826;5.850;2023-07-28T08:46:16;20.13;92.15
67054;SHT31;53960;51.826;5.850;2023-07-28T08:48:41;20.23;91.63
67054;SHT31;53960;51.826;5.850;2023-07-28T08:51:07;20.26;91.57
67054;SHT31;53960;51.826;5.850;2023-07-28T08:53:33;20.31;91.34
67054;SHT31;53960;51.826;5.850;2023-07-28T08:55:59;20.27;91.27
67054;SHT31;53960;51.826;5.850;2023-07-28T08:58:24;20.27;91.10
67054;SHT31;53960;51.826;5.850;2023-07-28T09:00:51;20.30;91.28
67054;SHT31;53960;51.826;5.850;2023-07-28T09:03:18;20.34;91.22
67054;SHT31;53960;51.826;5.850;2023-07-28T09:05:44;20.39;91.37
67054;SHT31;53960;51.826;5.850;2023-07-28T09:08:12;20.44;90.89
67054;SHT31;53960;51.826;5.850;2023-07-28T09:10:48;20.47;91.08
67054;SHT31;53960;51.826;5.850;2023-07-28T09:13:15;20.58;91.00
67054;SHT31;53960;51.826;5.850;2023-07-28T09:15:41;20.65;90.56
67054;SHT31;53960;51.826;5.850;2023-07-28T09:18:11;20.67;90.33
67054;SHT31;53960;51.826;5.850;2023-07-28T09:20:40;20.71;90.65
67054;SHT31;53960;51.826;5.850;2023-07-28T09:23:07;20.79;90.23
67054;SHT31;53960;51.826;5.850;2023-07-28T09:25:34;20.85;89.88
67054;SHT31;53960;51.826;5.850;2023-07-28T09:28:00;20.92;89.42
67054;SHT31;53960;51.826;5.850;2023-07-28T09:30:26;21.02;89.57
67054;SHT31;53960;51.826;5.850;2023-07-28T09:32:54;21.20;89.55
67054;SHT31;53960;51.826;5.850;2023-07-28T09:35:21;21.36;89.39
67054;SHT31;53960;51.826;5.850;2023-07-28T09:37:48;21.37;88.94
67054;SHT31;53960;51.826;5.850;2023-07-28T09:40:17;21.29;87.93
67054;SHT31;53960;51.826;5.850;2023-07-28T09:42:43;21.16;88.08
67054;SHT31;53960;51.826;5.850;2023-07-28T09:45:15;21.16;88.52
67054;SHT31;53960;51.826;5.850;2023-07-28T09:47:44;21.05;89.35
67054;SHT31;53960;51.826;5.850;2023-07-28T09:50:10;21.13;89.14
67054;SHT31;53960;51.826;5.850;2023-07-28T09:52:47;21.22;88.47
67054;SHT31;53960;51.826;5.850;2023-07-28T09:55:15;21.43;88.31
67054;SHT31;53960;51.826;5.850;2023-07-28T09:57:50;21.67;87.68
67054;SHT31;53960;51.826;5.850;2023-07-28T10:00:17;21.88;86.81
67054;SHT31;53960;51.826;5.850;2023-07-28T10:02:44;21.91;87.10
67054;SHT31;53960;51.826;5.850;2023-07-28T10:05:10;21.93;86.38
67054;SHT31;53960;51.826;5.850;2023-07-28T10:07:37;22.05;86.16
67054;SHT31;53960;51.826;5.850;2023-07-28T10:10:04;22.00;86.56
67054;SHT31;53960;51.826;5.850;2023-07-28T10:12:45;22.00;86.75
67054;SHT31;53960;51.826;5.850;2023-07-28T10:15:13;21.88;86.66
67054;SHT31;53960;51.826;5.850;2023-07-28T10:17:46;21.83;86.81
67054;SHT31;53960;51.826;5.850;2023-07-28T10:20:30;21.64;87.35
67054;SHT31;53960;51.826;5.850;2023-07-28T10:23:13;21.54;87.34
67054;SHT31;53960;51.826;5.850;2023-07-28T10:25:39;21.78;86.26
67054;SHT31;53960;51.826;5.850;2023-07-28T10:28:06;21.98;86.00
67054;SHT31;53960;51.826;5.850;2023-07-28T10:30:37;22.08;86.08
67054;SHT31;53960;51.826;5.850;2023-07-28T10:33:04;22.15;85.08
67054;SHT31;53960;51.826;5.850;2023-07-28T10:35:30;22.15;84.61
67054;SHT31;53960;51.826;5.850;2023-07-28T10:37:57;22.32;84.67
67054;SHT31;53960;51.826;5.850;2023-07-28T10:40:33;22.41;84.37
67054;SHT31;53960;51.826;5.850;2023-07-28T10:43:01;22.38;83.92
67054;SHT31;53960;51.826;5.850;2023-07-28T10:45:28;22.35;83.94
67054;SHT31;53960;51.826;5.850;2023-07-28T10:47:55;22.35;83.57
67054;SHT31;53960;51.826;5.850;2023-07-28T10:50:21;22.39;83.54
67054;SHT31;53960;51.826;5.850;2023-07-28T10:52:47;22.31;83.61
67054;SHT31;53960;51.826;5.850;2023-07-28T10:55:17;22.32;84.38
67054;SHT31;53960;51.826;5.850;2023-07-28T10:57:48;22.34;84.51
67054;SHT31;53960;51.826;5.850;2023-07-28T11:00:16;22.32;84.81
67054;SHT31;53960;51.826;5.850;2023-07-28T11:02:42;22.39;85.12
67054;SHT31;53960;51.826;5.850;2023-07-28T11:05:21;22.41;84.93
67054;SHT31;53960;51.826;5.850;2023-07-28T11:07:51;22.44;83.80
67054;SHT31;53960;51.826;5.850;2023-07-28T11:10:17;22.52;83.50
67054;SHT31;53960;51.826;5.850;2023-07-28T11:12:46;22.65;83.18
67054;SHT31;53960;51.826;5.850;2023-07-28T11:15:13;22.76;84.54
67054;SHT31;53960;51.826;5.850;2023-07-28T11:17:44;22.89;83.16
67054;SHT31;53960;51.826;5.850;2023-07-28T11:20:17;23.00;83.09
67054;SHT31;53960;51.826;5.850;2023-07-28T11:22:43;23.06;81.86
67054;SHT31;53960;51.826;5.850;2023-07-28T11:25:11;23.10;81.54
67054;SHT31;53960;51.826;5.850;2023-07-28T11:27:37;23.20;81.88
67054;SHT31;53960;51.826;5.850;2023-07-28T11:30:03;23.31;82.05
67054;SHT31;53960;51.826;5.850;2023-07-28T11:32:31;23.30;81.23
67054;SHT31;53960;51.826;5.850;2023-07-28T11:35:05;23.40;81.22
67054;SHT31;53960;51.826;5.850;2023-07-28T11:37:32;23.41;80.81
67054;SHT31;53960;51.826;5.850;2023-07-28T11:40:02;23.47;81.70
67054;SHT31;53960;51.826;5.850;2023-07-28T11:42:33;23.54;81.16
67054;SHT31;53960;51.826;5.850;2023-07-28T11:44:59;23.71;81.41
67054;SHT31;53960;51.826;5.850;2023-07-28T11:47:24;23.61;79.48
67054;SHT31;53960;51.826;5.850;2023-07-28T11:49:50;23.45;79.81
67054;SHT31;53960;51.826;5.850;2023-07-28T11:52:16;23.44;79.37
67054;SHT31;53960;51.826;5.850;2023-07-28T11:54:43;23.47;79.89
67054;SHT31;53960;51.826;5.850;2023-07-28T11:57:09;23.44;80.39
67054;SHT31;53960;51.826;5.850;2023-07-28T11:59:35;23.44;80.18
67054;SHT31;53960;51.826;5.850;2023-07-28T12:02:02;23.55;80.73
67054;SHT31;53960;51.826;5.850;2023-07-28T12:04:31;23.65;79.22
67054;SHT31;53960;51.826;5.850;2023-07-28T12:07:27;23.68;78.58
67054;SHT31;53960;51.826;5.850;2023-07-28T12:09:53;23.58;78.96
67054;SHT31;53960;51.826;5.850;2023-07-28T12:12:21;23.66;79.29
67054;SHT31;53960;51.826;5.850;2023-07-28T12:14:48;23.79;78.10
67054;SHT31;53960;51.826;5.850;2023-07-28T12:17:21;23.76;78.46
67054;SHT31;53960;51.826;5.850;2023-07-28T12:20:06;23.66;78.39
67054;SHT31;53960;51.826;5.850;2023-07-28T12:22:41;23.82;78.98
67054;SHT31;53960;51.826;5.850;2023-07-28T12:25:08;24.20;77.48
67054;SHT31;53960;51.826;5.850;2023-07-28T12:27:34;24.20;77.11
67054;SHT31;53960;51.826;5.850;2023-07-28T12:30:00;24.40;77.51
67054;SHT31;53960;51.826;5.850;2023-07-28T12:32:26;24.61;76.82
67054;SHT31;53960;51.826;5.850;2023-07-28T12:34:52;24.80;74.74
67054;SHT31;53960;51.826;5.850;2023-07-28T12:37:18;24.96;76.48
67054;SHT31;53960;51.826;5.850;2023-07-28T12:39:44;24.88;74.72
67054;SHT31;53960;51.826;5.850;2023-07-28T12:42:10;24.75;75.09
67054;SHT31;53960;51.826;5.850;2023-07-28T12:44:36;24.92;73.53
67054;SHT31;53960;51.826;5.850;2023-07-28T12:47:02;25.05;73.77
67054;SHT31;53960;51.826;5.850;2023-07-28T12:49:28;25.23;74.29
67054;SHT31;53960;51.826;5.850;2023-07-28T12:51:55;25.36;72.59
67054;SHT31;53960;51.826;5.850;2023-07-28T12:54:22;25.47;72.41
67054;SHT31;53960;51.826;5.850;2023-07-28T12:56:47;25.49;72.40
67054;SHT31;53960;51.826;5.850;2023-07-28T12:59:13;25.65;73.29
67054;SHT31;53960;51.826;5.850;2023-07-28T13:01:39;25.60;70.80
67054;SHT31;53960;51.826;5.850;2023-07-28T13:04:04;25.56;71.17
67054;SHT31;53960;51.826;5.850;2023-07-28T13:06:29;25.23;71.92
67054;SHT31;53960;51.826;5.850;2023-07-28T13:08:55;25.16;71.21
67054;SHT31;53960;51.826;5.850;2023-07-28T13:11:20;25.25;71.73
67054;SHT31;53960;51.826;5.850;2023-07-28T13:13:45;25.01;71.68
67054;SHT31;53960;51.826;5.850;2023-07-28T13:16:11;24.82;71.65
67054;SHT31;53960;51.826;5.850;2023-07-28T13:18:36;24.57;71.90
67054;SHT31;53960;51.826;5.850;2023-07-28T13:21:02;24.47;72.25
67054;SHT31;53960;51.826;5.850;2023-07-28T13:23:27;24.30;74.19
67054;SHT31;53960;51.826;5.850;2023-07-28T13:25:52;24.19;75.14
67054;SHT31;53960;51.826;5.850;2023-07-28T13:28:18;24.06;76.09
67054;SHT31;53960;51.826;5.850;2023-07-28T13:30:44;24.22;75.58
67054;SHT31;53960;51.826;5.850;2023-07-28T13:33:09;24.22;75.62
67054;SHT31;53960;51.826;5.850;2023-07-28T13:35:34;24.17;75.44
67054;SHT31;53960;51.826;5.850;2023-07-28T13:38:00;24.10;75.21
67054;SHT31;53960;51.826;5.850;2023-07-28T13:40:25;24.12;76.25
67054;SHT31;53960;51.826;5.850;2023-07-28T13:42:50;24.09;76.28
67054;SHT31;53960;51.826;5.850;2023-07-28T13:45:16;24.03;76.47
67054;SHT31;53960;51.826;5.850;2023-07-28T13:47:41;24.47;74.82
67054;SHT31;53960;51.826;5.850;2023-07-28T13:50:07;24.63;73.60
67054;SHT31;53960;51.826;5.850;2023-07-28T13:52:32;24.82;73.25
67054;SHT31;53960;51.826;5.850;2023-07-28T13:54:58;24.96;73.63
67054;SHT31;53960;51.826;5.850;2023-07-28T13:57:23;25.22;72.92
67054;SHT31;53960;51.826;5.850;2023-07-28T13:59:49;25.36;72.02
67054;SHT31;53960;51.826;5.850;2023-07-28T14:02:16;25.09;73.09
67054;SHT31;53960;51.826;5.850;2023-07-28T14:04:43;24.92;74.59
67054;SHT31;53960;51.826;5.850;2023-07-28T14:07:08;24.75;74.47
67054;SHT31;53960;51.826;5.850;2023-07-28T14:09:33;24.63;75.00
67054;SHT31;53960;51.826;5.850;2023-07-28T14:11:59;24.51;74.90
67054;SHT31;53960;51.826;5.850;2023-07-28T14:14:24;24.44;75.61
67054;SHT31;53960;51.826;5.850;2023-07-28T14:16:50;24.33;75.32
67054;SHT31;53960;51.826;5.850;2023-07-28T14:19:15;24.24;75.31
67054;SHT31;53960;51.826;5.850;2023-07-28T14:21:40;24.26;75.68
67054;SHT31;53960;51.826;5.850;2023-07-28T14:24:06;24.60;74.82
67054;SHT31;53960;51.826;5.850;2023-07-28T14:26:31;24.96;74.06
67054;SHT31;53960;51.826;5.850;2023-07-28T14:28:56;25.16;73.78
67054;SHT31;53960;51.826;5.850;2023-07-28T14:31:22;25.16;72.53
67054;SHT31;53960;51.826;5.850;2023-07-28T14:33:47;25.30;73.34
67054;SHT31;53960;51.826;5.850;2023-07-28T14:36:13;25.46;72.41
67054;SHT31;53960;51.826;5.850;2023-07-28T14:38:38;25.50;72.31
67054;SHT31;53960;51.826;5.850;2023-07-28T14:41:04;25.29;73.27
67054;SHT31;53960;51.826;5.850;2023-07-28T14:43:29;25.04;74.61
67054;SHT31;53960;51.826;5.850;2023-07-28T14:45:55;24.87;74.68
67054;SHT31;53960;51.826;5.850;2023-07-28T14:48:20;24.75;75.33
67054;SHT31;53960;51.826;5.850;2023-07-28T14:50:46;24.71;75.18
67054;SHT31;53960;51.826;5.850;2023-07-28T14:53:34;24.70;74.72
67054;SHT31;53960;51.826;5.850;2023-07-28T14:56:00;24.81;73.81
67054;SHT31;53960;51.826;5.850;2023-07-28T14:58:27;24.84;73.68
67054;SHT31;53960;51.826;5.850;2023-07-28T15:00:53;25.04;73.78
67054;SHT31;53960;51.826;5.850;2023-07-28T15:03:18;25.04;73.10
67054;SHT31;53960;51.826;5.850;2023-07-28T15:05:45;24.94;72.63
67054;SHT31;53960;51.826;5.850;2023-07-28T15:08:11;24.81;73.68
67054;SHT31;53960;51.826;5.850;2023-07-28T15:10:36;24.70;74.29
67054;SHT31;53960;51.826;5.850;2023-07-28T15:13:01;24.54;74.15
67054;SHT31;53960;51.826;5.850;2023-07-28T15:15:27;24.47;75.18
67054;SHT31;53960;51.826;5.850;2023-07-28T15:17:52;24.41;75.81
67054;SHT31;53960;51.826;5.850;2023-07-28T15:20:18;24.41;75.12
67054;SHT31;53960;51.826;5.850;2023-07-28T15:22:45;24.64;73.56
67054;SHT31;53960;51.826;5.850;2023-07-28T15:25:12;24.63;73.33